Tiempo atmosférico en la estación meteorológica de Caldes De Montbui, Barcelona (168 m.)

Fecha
DESCASC
Temp. máxima en grados centígrados (hora)
DESCASC
Temp. mínima en grados centígrados (hora)
DESCASC
Temp. media en grados centígrados
DESCASC
Racha de viento máxima en m/sg (hora)
DESCASC
Velocidad máxima media en intervalos de 10 minutos(hora)
DESCASC
Precipitaciones diarias en mm
DESCASC
Precipitaciones de 00:00 a 06:00 en mm
DESCASC
Precipitaciones de 06:00 a 12:00 en mm
DESCASC
Precipitaciones de 12:00 a 18:00 en mm
DESCASC
Precipitaciones de 18:00 a 24:00 en mm
DESCASC
17-08-2017 33.5 (13:30) 19 (07:30) 26.3 10.28 (13:50) 6.67 (14:20) 0 0 0 0 0
16-08-2017 31.8 (15:50) 19.4 (07:00) 25.6 7.5 (14:40) 4.44 (17:40) 0 0 0 0 0
15-08-2017 29.9 (13:10) 16.4 (00:00) 23.1 9.17 (14:30) 6.67 (13:40) 0 0 0 0 0
14-08-2017 32 (14:20) 15.3 (07:10) 23.7 11.11 (14:50) 6.39 (16:10) 0 0 0 0 0
13-08-2017 28.5 (14:00) 15.8 (00:00) 22.2 8.06 (14:50) 5.28 (15:10) 0 0 0 0 0
12-08-2017 26.7 (14:50) 17 (00:00) 21.9 9.17 (16:00) 6.11 (16:00) 0 0 0 0 0
11-08-2017 25.6 (13:40) 14.5 (00:00) 20.1 9.17 (15:50) 5.83 (15:50) 0 0 0 0 0
10-08-2017 27.8 (16:20) 15.6 (00:00) 21.7 10.83 (17:10) 7.22 (17:10) 0.4 0.4 0 0 0
09-08-2017 26.6 (12:40) 16.7 (00:00) 21.7 8.89 (15:00) 5.56 (16:00) 7 0 0 0 7
08-08-2017 27.7 (17:40) 19.3 (00:00) 23.5 5.83 (12:00) 3.61 (19:30) 10.8 0 6.8 4 0
07-08-2017 31.4 (18:10) 20.5 (00:00) 25.9 10 (16:50) 6.39 (16:50) 0 0 0 0 0
06-08-2017 33.4 (13:20) 22.4 (00:00) 27.9 11.11 (15:40) 7.22 (14:00) 0 0 0 0 0
05-08-2017 36.7 (14:30) 22.4 (00:00) 29.6 10 (15:50) 6.39 (17:20) 0 0 0 0 0
04-08-2017 36.4 (13:20) 21.2 (00:00) 28.8 13.06 (12:40) 6.39 (14:00) 0 0 0 0 0
03-08-2017 36.1 (12:10) 22.1 (00:00) 29.1 8.06 (13:00) 6.11 (13:00) 0 0 0 0 0
02-08-2017 34.8 (13:20) 19.9 (00:00) 27.3 8.89 (13:30) 6.39 (13:30) 0 0 0 0 0
01-08-2017 32.4 (15:10) 20.3 (00:00) 26.4 7.78 (16:30) 5.28 (16:30) 1.4 0 0 1.4 0
31-07-2017 35 (13:50) 19.1 (00:00) 27.1 8.89 (14:10) 4.72 (16:10) 0 0 0 0 0
30-07-2017 33.7 (15:20) 19.1 (00:00) 26.4 7.78 (16:20) 5 (16:20) 0 0 0 0 0
29-07-2017 32.1 (17:00) 19.2 (00:00) 25.6 8.33 (17:30) 5.56 (17:10) 0 0 0 0 0
28-07-2017 30.4 (15:00) 19.8 (00:00) 25.1 8.61 (13:00) 5.28 (13:10) 0 0 0 0 0
27-07-2017 30.8 (16:20) 16.6 (00:00) 23.7 10 (14:00) 5.83 (13:50) 0 0 0 0 0
26-07-2017 27.8 (14:10) 18 (00:00) 22.9 9.17 (15:00) 6.11 (14:40) 0 0 0 0 0
25-07-2017 29 (13:40) 18.6 (00:00) 23.8 11.39 (14:00) 7.5 (14:30) 0.8 0.8 0 0 0
24-07-2017 30.3 (14:00) 16.6 (00:00) 23.4 9.44 (14:10) 6.39 (14:30) 0.2 0 0.2 0 0
23-07-2017 29.8 (14:30) 19.3 (00:00) 24.5 10 (19:20) 5.83 (15:30) 4.8 0 0 0.2 4.6
22-07-2017 30.7 (16:40) 18.6 (00:00) 24.7 8.89 (12:00) 5.56 (12:40) 0 0 0 0 0
21-07-2017 27.7 (16:40) 18.5 (00:00) 23.1 9.17 (11:20) 5.83 (11:40) 0.4 0 0 0.4 0
20-07-2017 30 (16:30) 20.2 (00:00) 25.1 10 (16:20) 5 (17:40) 0 0 0 0 0
19-07-2017 33.1 (13:00) 18.6 (00:00) 25.8 9.17 (14:00) 6.11 (13:50) 0 0 0 0 0

Gráficas

Temp. máximas Temp. mínimas Temp. medias Precipitaciones Rachas de viento máximas Velocidades máximas media en intervalos de 10 minutos

Datos horarios

Fecha y hora oficial Temperatura (ºC) Velocidad del viento (km/h) Dirección del viento Racha (km/h) Dirección de racha Precipitación (mm) Presión (hPa) Tendencia (hPa) Humedad (%)
2017-08-17 23:00:00 23 4 Noroeste 8 Sudoeste 0 -- -- 77
2017-08-17 22:00:00 24.1 3 Sudoeste 9 Sudeste 0 -- -- 74
2017-08-17 21:00:00 25.6 7 Sudeste 19 Sudeste 0 -- -- 67
2017-08-17 20:00:00 27.7 12 Sudeste 23 Sudeste 0 -- -- 58
2017-08-17 19:00:00 29 15 Sudeste 27 Sudeste 0 -- -- 55
2017-08-17 18:00:00 29.9 18 Sudeste 32 Este 0 -- -- 52
2017-08-17 17:00:00 30.8 18 Sudeste 33 Sudeste 0 -- -- 50
2017-08-17 16:00:00 31.4 22 Sudeste 37 Sudeste 0 -- -- 47
2017-08-17 15:00:00 31.9 23 Sudeste 36 Sudeste 0 -- -- 44
2017-08-17 14:00:00 32.9 19 Sudeste 37 Este 0 -- -- 42
2017-08-17 13:00:00 32.5 13 Sudeste 24 Sudeste 0 -- -- 42
2017-08-17 12:00:00 31.3 12 Sur 27 Sur 0 -- -- 44
2017-08-17 11:00:00 29.5 14 Sudeste 26 Sudeste 0 -- -- 49
2017-08-17 10:00:00 26.2 5 Este 9 Este 0 -- -- 61
2017-08-17 09:00:00 23.2 0 Calma 4 Este 0 -- -- 72
2017-08-17 08:00:00 19.9 2 Noroeste 8 Noroeste 0 -- -- 85
2017-08-17 07:00:00 19.3 3 Noroeste 8 Oeste 0 -- -- 84
2017-08-17 06:00:00 19.7 4 Noroeste 9 Noroeste 0 -- -- 83
2017-08-17 05:00:00 19.7 7 Noroeste 9 Oeste 0 -- -- 82
2017-08-17 04:00:00 20 4 Noroeste 8 Noroeste 0 -- -- 80
2017-08-17 03:00:00 20.4 6 Noroeste 11 Noroeste 0 -- -- 78
2017-08-17 02:00:00 21.1 6 Noroeste 9 Noroeste 0 -- -- 74
2017-08-17 01:00:00 21.6 7 Noroeste 12 Oeste 0 -- -- 72
2017-08-17 00:00:00 22 8 Noroeste 12 Noroeste 0 -- -- 71
2017-08-16 23:00:00 22.4 8 Noroeste 11 Noroeste 0 -- -- 70
2017-08-16 22:00:00 23.2 4 Oeste 9 Este 0 -- -- 67
2017-08-16 21:00:00 25.4 2 Nordeste 10 Sudeste 0 -- -- 59
2017-08-16 20:00:00 26.9 7 Sudeste 19 Sudeste 0 -- -- 56
2017-08-16 19:00:00 27.3 10 Sudeste 23 Sudeste 0 -- -- 58
2017-08-16 18:00:00 29.2 15 Sur 24 Sudeste 0 -- -- 53
2017-08-16 17:00:00 30.8 15 Sudeste 23 Sudeste 0 -- -- 47
2017-08-16 16:00:00 31.8 13 Sudeste 23 Este 0 -- -- 44
2017-08-16 15:00:00 31 9 Este 27 Sudeste 0 -- -- 46
2017-08-16 14:00:00 30.4 9 Sudeste 19 Sudeste 0 -- -- 49
2017-08-16 13:00:00 28.5 5 Sudeste 14 Este 0 -- -- 56
2017-08-16 12:00:00 27 7 Sudeste 13 Sudeste 0 -- -- 60
2017-08-16 11:00:00 26 3 Oeste 9 Noroeste 0 -- -- 64
2017-08-16 10:00:00 24.5 6 Sudeste 12 Sudeste 0 -- -- 72
2017-08-16 09:00:00 22 3 Este 10 Oeste 0 -- -- 83
2017-08-16 08:00:00 20.3 8 Noroeste 10 Noroeste 0 -- -- 88
2017-08-16 07:00:00 19.4 0 Calma 6 Oeste 0 -- -- 92
2017-08-16 06:00:00 20 5 Noroeste 7 Noroeste 0 -- -- 90
2017-08-16 05:00:00 21.1 0 Calma 5 Norte 0 -- -- 89
2017-08-16 04:00:00 22.6 6 Norte 12 Norte 0 -- -- 86
2017-08-16 03:00:00 21.4 5 Noroeste 9 Noroeste 0 -- -- 88
2017-08-16 02:00:00 21.6 4 Noroeste 9 Noroeste 0 -- -- 86
2017-08-16 01:00:00 21.5 5 Noroeste 7 Noroeste 0 -- -- 77
2017-08-16 00:00:00 22.2 3 Noroeste 6 Noroeste 0 -- -- 80
2017-08-15 23:00:00 23.1 3 Oeste 7 Noroeste 0 -- -- 77
2017-08-15 22:00:00 24 5 Noroeste 8 Noroeste 0 -- -- 78
2017-08-15 21:00:00 25.3 5 Sur 14 Sudeste 0 -- -- 73
2017-08-15 20:00:00 26.6 6 Este 19 Sudeste 0 -- -- 69
2017-08-15 19:00:00 26.6 16 Sudeste 22 Sudeste 0 -- -- 67
2017-08-15 18:00:00 28.6 10 Este 17 Sudeste 0 -- -- 51
2017-08-15 17:00:00 28.3 6 Nordeste 14 Sudeste 0 -- -- 52
2017-08-15 16:00:00 28.7 12 Sudeste 25 Sudeste 0 -- -- 51
2017-08-15 15:00:00 28.7 18 Sudeste 33 Sudeste 0 -- -- 53
2017-08-15 14:00:00 29.3 23 Sudeste 33 Sudeste 0 -- -- 55
2017-08-15 13:00:00 29.7 13 Sudeste 23 Sudeste 0 -- -- 54
2017-08-15 12:00:00 28.8 6 Sur 18 Sudeste 0 -- -- 49
2017-08-15 11:00:00 27 7 Sudeste 13 Sudeste 0 -- -- 47
2017-08-15 10:00:00 24.3 3 Este 8 Sudeste 0 -- -- 61
2017-08-15 09:00:00 21.5 4 Sudeste 14 Noroeste 0 -- -- 68
2017-08-15 08:00:00 18.2 7 Noroeste 16 Noroeste 0 -- -- 75
2017-08-15 07:00:00 16.7 10 Noroeste 14 Noroeste 0 -- -- 84
2017-08-15 06:00:00 17.4 6 Oeste 13 Noroeste 0 -- -- 81
2017-08-15 05:00:00 17.8 10 Noroeste 18 Noroeste 0 -- -- 81
2017-08-15 04:00:00 17.8 10 Noroeste 17 Noroeste 0 -- -- 81
2017-08-15 03:00:00 18.1 6 Noroeste 10 Noroeste 0 -- -- 85
2017-08-15 02:00:00 19 8 Noroeste 14 Noroeste 0 -- -- 82
2017-08-15 01:00:00 19.5 8 Noroeste 12 Noroeste 0 -- -- 82
2017-08-15 00:00:00 20.3 8 Noroeste 13 Oeste 0 -- -- 78
2017-08-14 23:00:00 21.2 9 Noroeste 13 Noroeste 0 -- -- 75
2017-08-14 22:00:00 21.8 4 Noroeste 9 Noroeste 0 -- -- 73
2017-08-14 21:00:00 25 3 Este 20 Este 0 -- -- 63
2017-08-14 20:00:00 27 12 Sudeste 23 Sudeste 0 -- -- 57
2017-08-14 19:00:00 28.7 14 Sudeste 31 Sudeste 0 -- -- 49
2017-08-14 18:00:00 29.2 21 Sudeste 33 Este 0 -- -- 48
2017-08-14 17:00:00 30 21 Sudeste 34 Sudeste 0 -- -- 44
2017-08-14 16:00:00 30.4 22 Sudeste 36 Este 0 -- -- 45
2017-08-14 15:00:00 31.4 21 Sudeste 40 Este 0 -- -- 36
2017-08-14 14:00:00 31.5 17 Este 28 Este 0 -- -- 38
2017-08-14 13:00:00 30.8 13 Sur 24 Sudeste 0 -- -- 36
2017-08-14 12:00:00 30.1 10 Sur 21 Sur 0 -- -- 31
2017-08-14 11:00:00 27.5 10 Sudeste 16 Sudeste 0 -- -- 50
2017-08-14 10:00:00 23.7 5 Este 10 Sudeste 0 -- -- 59
2017-08-14 09:00:00 20.7 2 Sudeste 8 Sudeste 0 -- -- 68
2017-08-14 08:00:00 17.2 0 Calma 9 Noroeste 0 -- -- 75
2017-08-14 07:00:00 15.4 4 Noroeste 10 Noroeste 0 -- -- 80
2017-08-14 06:00:00 16.5 9 Noroeste 12 Noroeste 0 -- -- 75
2017-08-14 05:00:00 17.3 2 Norte 13 Noroeste 0 -- -- 80
2017-08-14 04:00:00 18 10 Noroeste 14 Noroeste 0 -- -- 77
2017-08-14 03:00:00 18.6 8 Oeste 13 Noroeste 0 -- -- 83
2017-08-14 02:00:00 19.5 6 Noroeste 13 Noroeste 0 -- -- 86
2017-08-14 01:00:00 20.2 8 Noroeste 12 Noroeste 0 -- -- 86
2017-08-14 00:00:00 20.7 6 Noroeste 10 Noroeste 0 -- -- 85
2017-08-13 23:00:00 21.7 6 Noroeste 10 Noroeste 0 -- -- 82
2017-08-13 22:00:00 23 0 Calma 6 Nordeste 0 -- -- 77
2017-08-13 21:00:00 24.5 4 Este 20 Este 0 -- -- 73
2017-08-13 20:00:00 26.1 15 Sudeste 26 Este 0 -- -- 64
2017-08-13 19:00:00 27.4 15 Sudeste 28 Sudeste 0 -- -- 61
2017-08-13 18:00:00 27.9 17 Sudeste 27 Sudeste 0 -- -- 57
2017-08-13 17:00:00 28.1 15 Sudeste 29 Sudeste 0 -- -- 55
2017-08-13 16:00:00 28.2 15 Sudeste 27 Sudeste 0 -- -- 53
2017-08-13 15:00:00 28.3 18 Sudeste 29 Sudeste 0 -- -- 52
2017-08-13 14:00:00 28.5 15 Sudeste 27 Sudeste 0 -- -- 47
2017-08-13 13:00:00 28.1 10 Este 26 Sudeste 0 -- -- 44
2017-08-13 12:00:00 27.1 8 Sudeste 18 Sur 0 -- -- 42
2017-08-13 11:00:00 25.8 7 Sudeste 13 Sudeste 0 -- -- 50
2017-08-13 10:00:00 23.3 4 Sur 9 Este 0 -- -- 62
2017-08-13 09:00:00 20.4 3 Este 6 Este 0 -- -- 71
2017-08-13 08:00:00 17.4 4 Noroeste 10 Noroeste 0 -- -- 78
2017-08-13 07:00:00 15.9 8 Noroeste 12 Noroeste 0 -- -- 82
2017-08-13 06:00:00 16.5 9 Noroeste 13 Noroeste 0 -- -- 80
2017-08-13 05:00:00 16.6 7 Noroeste 12 Noroeste 0 -- -- 80
2017-08-13 04:00:00 17.1 5 Noroeste 11 Noroeste 0 -- -- 79
2017-08-13 03:00:00 17.7 8 Noroeste 15 Oeste 0 -- -- 79
2017-08-13 02:00:00 18 10 Noroeste 14 Noroeste 0 -- -- 79
2017-08-13 01:00:00 18.3 10 Noroeste 14 Noroeste 0 -- -- 79
2017-08-13 00:00:00 18.8 9 Noroeste 12 Noroeste 0 -- -- 78
2017-08-12 23:00:00 19.5 9 Noroeste 13 Noroeste 0 -- -- 76
2017-08-12 22:00:00 20.6 4 Noroeste 8 Sudeste 0 -- -- 72
2017-08-12 21:00:00 22.7 6 Sudeste 14 Sudeste 0 -- -- 62
2017-08-12 20:00:00 24.6 10 Este 21 Sudeste 0 -- -- 57
2017-08-12 19:00:00 25.3 13 Este 27 Este 0 -- -- 60
2017-08-12 18:00:00 25.6 15 Sudeste 28 Sudeste 0 -- -- 60
2017-08-12 17:00:00 25.8 19 Sudeste 32 Sudeste 0 -- -- 59
2017-08-12 16:00:00 26.2 22 Sudeste 33 Sudeste 0 -- -- 57
2017-08-12 15:00:00 26.4 17 Sudeste 30 Sudeste 0 -- -- 55
2017-08-12 14:00:00 26.2 18 Sudeste 32 Sudeste 0 -- -- 55
2017-08-12 13:00:00 25.4 13 Sudeste 27 Sudeste 0 -- -- 57
2017-08-12 12:00:00 25.8 8 Sur 17 Sudeste 0 -- -- 53
2017-08-12 11:00:00 24.4 7 Sudeste 14 Sudeste 0 -- -- 59
2017-08-12 10:00:00 22.8 5 Este 11 Sudeste 0 -- -- 68
2017-08-12 09:00:00 20.3 7 Este 13 Este 0 -- -- 78
2017-08-12 08:00:00 18.3 8 Noroeste 13 Noroeste 0 -- -- 86
2017-08-12 07:00:00 17 3 Noroeste 13 Noroeste 0 -- -- 89
2017-08-12 06:00:00 17.3 10 Noroeste 14 Noroeste 0 -- -- 89
2017-08-12 05:00:00 17.6 10 Noroeste 13 Noroeste 0 -- -- 87
2017-08-12 04:00:00 19 5 Noroeste 9 Noroeste 0 -- -- 81
2017-08-12 03:00:00 19.2 7 Noroeste 9 Noroeste 0 -- -- 81
2017-08-12 02:00:00 19.6 4 Noroeste 11 Noroeste 0 -- -- 76
2017-08-12 01:00:00 19.5 3 Noroeste 9 Noroeste 0 -- -- 78
2017-08-12 00:00:00 19.8 4 Noroeste 8 Noroeste 0 -- -- 76
2017-08-11 23:00:00 20.2 3 Norte 14 Nordeste 0 -- -- 75
2017-08-11 22:00:00 20.7 5 Este 17 Este 0 -- -- 73
2017-08-11 21:00:00 20.9 7 Este 23 Este 0 -- -- 73
2017-08-11 20:00:00 21.9 13 Sudeste 23 Sudeste 0 -- -- 68
2017-08-11 19:00:00 22.1 12 Este 24 Sudeste 0 -- -- 66
2017-08-11 18:00:00 22.7 17 Sudeste 27 Sudeste 0 -- -- 64
2017-08-11 17:00:00 23.1 15 Sudeste 30 Este 0 -- -- 61
2017-08-11 16:00:00 23.9 19 Sudeste 33 Sudeste 0 -- -- 56
2017-08-11 15:00:00 25 18 Sudeste 30 Sur 0 -- -- 52
2017-08-11 14:00:00 25.5 18 Sudeste 28 Sudeste 0 -- -- 48
2017-08-11 13:00:00 24.4 10 Sur 25 Sudeste 0 -- -- 48
2017-08-11 12:00:00 24.1 13 Sudeste 21 Sudeste 0 -- -- 48
2017-08-11 11:00:00 22.1 6 Norte 14 Sudoeste 0 -- -- 50
2017-08-11 10:00:00 20.2 5 Este 13 Este 0 -- -- 55
2017-08-11 09:00:00 18.4 5 Este 13 Sudoeste 0 -- -- 62
2017-08-11 08:00:00 16.3 4 Sur 12 Sur 0 -- -- 75
2017-08-11 07:00:00 14.7 3 Sudeste 8 Noroeste 0 -- -- 84
2017-08-11 06:00:00 14.5 5 Oeste 9 Noroeste 0 -- -- 84
2017-08-11 05:00:00 15.7 0 Calma 10 Sudoeste 0 -- -- 81
2017-08-11 04:00:00 16.2 4 Sudeste 9 Noroeste 0 -- -- 86
2017-08-11 03:00:00 16.2 4 Noroeste 8 Sudoeste 0 -- -- 86
2017-08-11 02:00:00 17.3 2 Este 13 Oeste 0 -- -- 80
2017-08-11 01:00:00 18.3 5 Noroeste 15 Norte 0 -- -- 77
2017-08-11 00:00:00 19.9 8 Norte 21 Norte 0 -- -- 68
2017-08-10 23:00:00 21 6 Norte 14 Norte 0 -- -- 63
2017-08-10 22:00:00 21.3 5 Norte 15 Nordeste 0 -- -- 64
2017-08-10 21:00:00 22.4 6 Este 17 Este 0 -- -- 61
2017-08-10 20:00:00 23.4 9 Este 24 Este 0 -- -- 50
2017-08-10 19:00:00 24.7 14 Sudeste 30 Sudeste 0 -- -- 45
2017-08-10 18:00:00 25.6 19 Sudeste 39 Sudeste 0 -- -- 43
2017-08-10 17:00:00 26.2 23 Sudeste 37 Sudeste 0 -- -- 44
2017-08-10 16:00:00 27.3 9 Sur 23 Sudoeste 0 -- -- 30
2017-08-10 15:00:00 26 6 Oeste 24 Sudoeste 0 -- -- 31
2017-08-10 14:00:00 25 8 Sur 19 Sudeste 0 -- -- 40
2017-08-10 13:00:00 22.8 4 Noroeste 15 Sudeste 0 -- -- 57
2017-08-10 12:00:00 21.3 4 Sudoeste 12 Sudoeste 0 -- -- 63
2017-08-10 11:00:00 19.9 4 Oeste 9 Sudeste 0 -- -- 73
2017-08-10 10:00:00 17.7 6 Sudeste 9 Sudeste 0 -- -- 85
2017-08-10 09:00:00 16.5 3 Este 9 Este 0 -- -- 94
2017-08-10 08:00:00 15.8 6 Noroeste 10 Oeste 0 -- -- 93
2017-08-10 07:00:00 15.7 6 Noroeste 11 Noroeste 0 -- -- 95
2017-08-10 06:00:00 16.1 3 Oeste 6 Oeste 0 -- -- 95
2017-08-10 05:00:00 16.4 4 Noroeste 7 Noroeste 0 -- -- 96
2017-08-10 04:00:00 16.8 4 Oeste 9 Noroeste 0 -- -- 97
2017-08-10 03:00:00 17.1 5 Sur 12 Oeste 0.4 -- -- 97
2017-08-10 02:00:00 17.2 4 Este 12 Este 0 -- -- 97
2017-08-10 01:00:00 17.4 4 Oeste 6 Noroeste 0 -- -- 96
2017-08-10 00:00:00 17.2 0 Calma 6 Sudoeste 0.8 -- -- 94
2017-08-09 23:00:00 17.4 0 Calma 8 Sudeste 2.4 -- -- 93
2017-08-09 22:00:00 18 5 Sudeste 13 Sudoeste 0.4 -- -- 92
2017-08-09 21:00:00 18 11 Oeste 21 Oeste 1.4 -- -- 91
2017-08-09 20:00:00 18.7 14 Noroeste 19 Oeste 1 -- -- 90
2017-08-09 19:00:00 20.5 8 Noroeste 13 Noroeste 1 -- -- 85
2017-08-09 18:00:00 22.6 4 Nordeste 15 Norte 0 -- -- 64
2017-08-09 17:00:00 23.2 7 Este 27 Sudeste 0 -- -- 61
2017-08-09 16:00:00 24 20 Sudeste 32 Este 0 -- -- 59
2017-08-09 15:00:00 25.8 16 Sudeste 32 Sudeste 0 -- -- 56
2017-08-09 14:00:00 25.6 14 Sudeste 28 Sur 0 -- -- 55
2017-08-09 13:00:00 26.6 11 Sur 26 Sur 0 -- -- 47
2017-08-09 12:00:00 25.6 15 Sudoeste 26 Sudoeste 0 -- -- 50
2017-08-09 11:00:00 24 6 Este 11 Este 0 -- -- 49
2017-08-09 10:00:00 21.5 7 Este 12 Sudeste 0 -- -- 59
2017-08-09 09:00:00 20.3 6 Sudeste 9 Sudeste 0 -- -- 73
2017-08-09 08:00:00 17.5 0 Calma -- -- 0 -- -- 91
2017-08-09 07:00:00 17.1 0 Calma 4 Noroeste 0 -- -- 91
2017-08-09 06:00:00 17 2 Norte 10 Oeste 0 -- -- 92
2017-08-09 05:00:00 17 2 Noroeste 14 Noroeste 0 -- -- 88
2017-08-09 04:00:00 16.8 7 Noroeste 10 Noroeste 0 -- -- 88
2017-08-09 03:00:00 17.1 2 Noroeste 8 Oeste 0 -- -- 88
2017-08-09 02:00:00 17.5 3 Noroeste 18 Noroeste 0 -- -- 85
2017-08-09 01:00:00 18.2 7 Norte 17 Noroeste 0 -- -- 81
2017-08-09 00:00:00 19.4 5 Noroeste 12 Oeste 0 -- -- 68
2017-08-08 23:00:00 21.3 4 Noroeste 10 Noroeste 0 -- -- 64
2017-08-08 22:00:00 22.9 2 Norte 6 Este 0 -- -- 57
2017-08-08 21:00:00 24.1 5 Sudeste 14 Sur 0 -- -- 62
2017-08-08 20:00:00 24.9 9 Sur 21 Sur 0 -- -- 61
2017-08-08 19:00:00 26.9 11 Sudeste 19 Este 0 -- -- 58
2017-08-08 18:00:00 27.3 6 Nordeste 17 Sudeste 0 -- -- 54
2017-08-08 17:00:00 27.2 6 Nordeste 21 Noroeste 0 -- -- 59
2017-08-08 16:00:00 26 7 Norte 17 Nordeste 0 -- -- 62
2017-08-08 15:00:00 24.5 4 Norte 14 Nordeste 0 -- -- 71
2017-08-08 14:00:00 23.8 6 Nordeste 15 Nordeste 0 -- -- 79
2017-08-08 13:00:00 22.6 3 Norte 13 Noroeste 4 -- -- 89
2017-08-08 12:00:00 22.3 8 Noroeste 21 Noroeste 6.6 -- -- 89
2017-08-08 11:00:00 24.9 5 Norte 21 Norte 0.2 -- -- 76
2017-08-08 10:00:00 26.1 9 Norte 19 Norte 0 -- -- 75
2017-08-08 09:00:00 26.3 5 Nordeste 15 Nordeste 0 -- -- 78
2017-08-08 08:00:00 25.1 0 Calma 7 Noroeste 0 -- -- 81
2017-08-08 07:00:00 24.8 4 Noroeste 6 Noroeste 0 -- -- 80
2017-08-08 06:00:00 24.8 4 Noroeste 9 Oeste 0 -- -- 79
2017-08-08 05:00:00 24.6 2 Sudoeste 6 Este 0 -- -- 79
2017-08-08 04:00:00 24.4 4 Noroeste 9 Norte 0 -- -- 79
2017-08-08 03:00:00 24.3 4 Sudoeste 13 Noroeste 0 -- -- 78
2017-08-08 02:00:00 24.1 4 Oeste 10 Noroeste 0 -- -- 78
2017-08-08 01:00:00 24 5 Noroeste 10 Noroeste 0 -- -- 76
2017-08-08 00:00:00 23.8 7 Noroeste 9 Noroeste 0 -- -- 75
2017-08-07 23:00:00 24.7 4 Sur 9 Sudeste 0 -- -- 79
2017-08-07 22:00:00 25.2 5 Sudeste 12 Sudeste 0 -- -- 73
2017-08-07 21:00:00 26.5 9 Sudeste 22 Sudeste 0 -- -- 61
2017-08-07 20:00:00 28.6 15 Sudeste 26 Sudeste 0 -- -- 49
2017-08-07 19:00:00 30.3 21 Sudeste 36 Sur 0 -- -- 42
2017-08-07 18:00:00 31.3 20 Sudeste 33 Sudeste 0 -- -- 47
2017-08-07 17:00:00 30.7 21 Sudeste 36 Sudeste 0 -- -- 53
2017-08-07 16:00:00 31 18 Sur 33 Este 0 -- -- 55
2017-08-07 15:00:00 31.2 20 Sudeste 34 Sudeste 0 -- -- 53
2017-08-07 14:00:00 29.5 14 Sur 26 Sudeste 0 -- -- 57
2017-08-07 13:00:00 29.7 13 Sur 28 Sudeste 0 -- -- 54
2017-08-07 12:00:00 29.2 11 Sur 23 Sudoeste 0 -- -- 53
2017-08-07 11:00:00 28.9 10 Sur 21 Sudoeste 0 -- -- 54
2017-08-07 10:00:00 27.1 8 Sudeste 15 Sudeste 0 -- -- 58
2017-08-07 09:00:00 23.8 0 Calma 8 Noroeste 0 -- -- 74
2017-08-07 08:00:00 21.8 6 Noroeste 12 Noroeste 0 -- -- 75
2017-08-07 07:00:00 20.6 9 Noroeste 13 Noroeste 0 -- -- 81
2017-08-07 06:00:00 21 9 Noroeste 12 Noroeste 0 -- -- 83
2017-08-07 05:00:00 21.2 4 Noroeste 6 Noroeste 0 -- -- 85
2017-08-07 04:00:00 21.6 6 Noroeste 12 Noroeste 0 -- -- 84
2017-08-07 03:00:00 22.2 8 Noroeste 10 Oeste 0 -- -- 83
2017-08-07 02:00:00 23.2 3 Noroeste 5 Noroeste 0 -- -- 79
2017-08-07 01:00:00 23.5 0 Calma 5 Sudoeste 0 -- -- 80
2017-08-07 00:00:00 23.9 0 Calma 5 Sur 0 -- -- 79
2017-08-06 23:00:00 23.8 0 Calma 10 Sudeste 0 -- -- 74
2017-08-06 22:00:00 24.8 8 Sudeste 19 Sudeste 0 -- -- 75
2017-08-06 21:00:00 25.7 13 Sudeste 21 Sudeste 0 -- -- 72
2017-08-06 20:00:00 28.1 13 Sudeste 26 Este 0 -- -- 64
2017-08-06 19:00:00 29.1 16 Sudeste 31 Sudeste 0 -- -- 61
2017-08-06 18:00:00 29.3 22 Sudeste 32 Sudeste 0 -- -- 62
2017-08-06 17:00:00 30.1 19 Sudeste 33 Sudeste 0 -- -- 60
2017-08-06 16:00:00 30.3 23 Sudeste 40 Sudeste 0 -- -- 58
2017-08-06 15:00:00 29.4 26 Sudeste 39 Sudeste 0 -- -- 62
2017-08-06 14:00:00 32.2 26 Sudeste 36 Sudeste 0 -- -- 51
2017-08-06 13:00:00 33.2 15 Sur 27 Sudeste 0 -- -- 42
2017-08-06 12:00:00 32 10 Sudeste 21 Sudeste 0 -- -- 46
2017-08-06 11:00:00 29.7 5 Este 10 Este 0 -- -- 54
2017-08-06 10:00:00 26.6 4 Sudeste 8 Sudeste 0 -- -- 66
2017-08-06 09:00:00 25.1 4 Sur 7 Sur 0 -- -- 71
2017-08-06 08:00:00 23.4 2 Noroeste 6 Noroeste 0 -- -- 76
2017-08-06 07:00:00 22.4 3 Oeste 6 Noroeste 0 -- -- 79
2017-08-06 06:00:00 22.7 6 Noroeste 10 Noroeste 0 -- -- 78
2017-08-06 05:00:00 23 7 Noroeste 10 Noroeste 0 -- -- 79
2017-08-06 04:00:00 23.9 8 Noroeste 15 Noroeste 0 -- -- 78
2017-08-06 03:00:00 24.1 8 Noroeste 14 Noroeste 0 -- -- 80
2017-08-06 02:00:00 24.3 7 Noroeste 9 Noroeste 0 -- -- 80
2017-08-06 01:00:00 25.1 4 Noroeste 7 Noroeste 0 -- -- 76
2017-08-06 00:00:00 25.7 3 Noroeste 7 Este 0 -- -- 73
2017-08-05 23:00:00 27.2 2 Sudeste 10 Norte 0 -- -- 69
2017-08-05 22:00:00 28.4 3 Nordeste 18 Este 0 -- -- 60
2017-08-05 21:00:00 30 11 Sudeste 23 Sudeste 0 -- -- 52
2017-08-05 20:00:00 32.3 15 Sudeste 27 Sudeste 0 -- -- 44
2017-08-05 19:00:00 34 19 Sudeste 32 Sudeste 0 -- -- 41
2017-08-05 18:00:00 35.2 19 Sudeste 36 Sudeste 0 -- -- 39
2017-08-05 17:00:00 36.4 21 Sudeste 34 Sudeste 0 -- -- 35
2017-08-05 16:00:00 36.6 22 Sudeste 36 Sudeste 0 -- -- 33
2017-08-05 15:00:00 36.4 19 Sudeste 34 Sudeste 0 -- -- 33
2017-08-05 14:00:00 36.3 15 Sudeste 35 Sudeste 0 -- -- 35
2017-08-05 13:00:00 35.3 13 Sur 25 Sudeste 0 -- -- 37
2017-08-05 12:00:00 34.4 13 Sur 27 Sudeste 0 -- -- 37
2017-08-05 11:00:00 32.8 12 Sudeste 20 Sudeste 0 -- -- 41
2017-08-05 10:00:00 30.7 4 Este 9 Este 0 -- -- 48
2017-08-05 09:00:00 27.3 0 Calma 3 Sudeste 0 -- -- 60
2017-08-05 08:00:00 24 3 Noroeste 8 Noroeste 0 -- -- 70
2017-08-05 07:00:00 22.6 5 Noroeste 10 Noroeste 0 -- -- 71
2017-08-05 06:00:00 22.7 8 Noroeste 10 Noroeste 0 -- -- 71
2017-08-05 05:00:00 22.7 6 Noroeste 8 Noroeste 0 -- -- 72
2017-08-05 04:00:00 23.2 6 Noroeste 8 Noroeste 0 -- -- 70
2017-08-05 03:00:00 23.8 6 Noroeste 9 Noroeste 0 -- -- 69
2017-08-05 02:00:00 24.2 5 Noroeste 9 Noroeste 0 -- -- 68
2017-08-05 01:00:00 24.9 5 Noroeste 10 Noroeste 0 -- -- 67
2017-08-05 00:00:00 25.2 8 Noroeste 10 Noroeste 0 -- -- 65
2017-08-04 23:00:00 25.6 0 Calma 5 Noroeste 0 -- -- 63
2017-08-04 22:00:00 27 0 Calma 10 Sur 0 -- -- 58
2017-08-04 21:00:00 28.8 6 Sur 13 Sur 0 -- -- 56
2017-08-04 20:00:00 30.7 10 Sudeste 20 Sudeste 0 -- -- 49
2017-08-04 19:00:00 31.7 14 Sudeste 24 Sudeste 0 -- -- 48
2017-08-04 18:00:00 33.3 17 Sudeste 28 Sudeste 0 -- -- 43
2017-08-04 17:00:00 34.6 16 Este 28 Sudeste 0 -- -- 40
2017-08-04 16:00:00 35.3 17 Sudeste 33 Sudeste 0 -- -- 39
2017-08-04 15:00:00 35.5 22 Sudeste 31 Sudeste 0 -- -- 38
2017-08-04 14:00:00 35.9 23 Sudeste 34 Sudeste 0 -- -- 36
2017-08-04 13:00:00 36.2 13 Sur 47 Sudeste 0 -- -- 33
2017-08-04 12:00:00 34.3 14 Sudeste 29 Sudeste 0 -- -- 39
2017-08-04 11:00:00 32 8 Sudeste 13 Sur 0 -- -- 45
2017-08-04 10:00:00 28.7 4 Este 9 Sudeste 0.8 -- -- 56
2017-08-04 09:00:00 26.1 3 Este 9 Noroeste 0.6 -- -- 65
2017-08-04 08:00:00 23.2 6 Noroeste 12 Noroeste 0 -- -- 58
2017-08-04 07:00:00 21.3 9 Noroeste 11 Noroeste 0 -- -- 62
2017-08-04 06:00:00 21.5 6 Noroeste 12 Noroeste 0 -- -- 61
2017-08-04 05:00:00 21.6 9 Noroeste 12 Noroeste 0 -- -- 61
2017-08-04 04:00:00 22.3 5 Noroeste 11 Noroeste 0 -- -- 59
2017-08-04 03:00:00 22.6 4 Noroeste 6 Noroeste 0 -- -- 58
2017-08-04 02:00:00 23.5 0 Calma 11 Noroeste 0 -- -- 55
2017-08-04 01:00:00 25.5 8 Noroeste 14 Noroeste 0 -- -- 50
2017-08-04 00:00:00 26.6 12 Noroeste 16 Noroeste 0 -- -- 48
2017-08-03 23:00:00 27.6 11 Noroeste 18 Noroeste 0 -- -- 46
2017-08-03 22:00:00 28.8 12 Noroeste 17 Noroeste 0 -- -- 44
2017-08-03 21:00:00 31.1 5 Noroeste 8 Sur 0 -- -- 39
2017-08-03 20:00:00 34.8 4 Sudeste 13 Sudeste 0 -- -- 32
2017-08-03 19:00:00 34.7 8 Sudeste 15 Sudeste 0 -- -- 32
2017-08-03 18:00:00 34.5 9 Sudeste 21 Sudeste 0 -- -- 38
2017-08-03 17:00:00 34 14 Sudeste 24 Este 0 -- -- 43
2017-08-03 16:00:00 33.1 10 Sudeste 20 Este 0 -- -- 49
2017-08-03 15:00:00 31.9 13 Este 26 Sur 0 -- -- 54
2017-08-03 14:00:00 31.5 14 Sur 27 Sur 0 -- -- 59
2017-08-03 13:00:00 32.8 22 Sudeste 29 Sudeste 0 -- -- 54
2017-08-03 12:00:00 35.7 16 Sudeste 23 Este 0 -- -- 35
2017-08-03 11:00:00 33.7 10 Este 14 Sudeste 0 -- -- 38
2017-08-03 10:00:00 31 6 Sudeste 9 Sudeste 0 -- -- 45
2017-08-03 09:00:00 26.2 3 Este 6 Este 0 -- -- 60
2017-08-03 08:00:00 23.8 0 Calma 13 Noroeste 0 -- -- 64
2017-08-03 07:00:00 23.1 10 Noroeste 15 Noroeste 0 -- -- 64
2017-08-03 06:00:00 22.5 4 Oeste 10 Noroeste 0 -- -- 67
2017-08-03 05:00:00 23 6 Noroeste 12 Noroeste 0 -- -- 66
2017-08-03 04:00:00 23.9 7 Noroeste 10 Noroeste 0 -- -- 63
2017-08-03 03:00:00 23.2 6 Noroeste 8 Noroeste 0 -- -- 66
2017-08-03 02:00:00 24.2 4 Sudeste 10 Noroeste 0 -- -- 62
2017-08-03 01:00:00 25.8 9 Noroeste 14 Noroeste 0 -- -- 56
2017-08-03 00:00:00 26.7 11 Noroeste 18 Noroeste 0 -- -- 56
2017-08-02 23:00:00 27.4 13 Noroeste 18 Noroeste 0 -- -- 55
2017-08-02 22:00:00 28.1 8 Noroeste 13 Noroeste 0 -- -- 53
2017-08-02 21:00:00 31.6 0 Calma 10 Norte 0 -- -- 43
2017-08-02 20:00:00 32.8 4 Nordeste 21 Sudeste 0 -- -- 43
2017-08-02 19:00:00 33.3 15 Sudeste 26 Sudeste 0 -- -- 40
2017-08-02 18:00:00 33.6 13 Sudeste 19 Sudeste 0 -- -- 45
2017-08-02 17:00:00 32 9 Sudeste 22 Sudeste 0 -- -- 55
2017-08-02 16:00:00 31.4 13 Sudeste 27 Sudeste 0 -- -- 55
2017-08-02 15:00:00 33.4 17 Sudeste 29 Sudeste 0 -- -- 45
2017-08-02 14:00:00 33.5 19 Sur 32 Sudeste 0 -- -- 48
2017-08-02 13:00:00 34.5 9 Sur 19 Sudeste 0 -- -- 40
2017-08-02 12:00:00 32.5 10 Sudeste 18 Sudeste 0 -- -- 46
2017-08-02 11:00:00 30.6 5 Sudeste 13 Sudeste 0 -- -- 49
2017-08-02 10:00:00 27.5 4 Oeste 9 Este 0 -- -- 59
2017-08-02 09:00:00 24.5 4 Este 6 Sudeste 0.2 -- -- 70
2017-08-02 08:00:00 22.1 2 Oeste 8 Noroeste 0.6 -- -- 80
2017-08-02 07:00:00 20.3 2 Oeste 9 Noroeste 0 -- -- 81
2017-08-02 06:00:00 20.9 9 Noroeste 12 Noroeste 0 -- -- 80
2017-08-02 05:00:00 20.2 4 Noroeste 8 Norte 0 -- -- 88
2017-08-02 04:00:00 21.1 2 Sudoeste 7 Oeste 0 -- -- 82
2017-08-02 03:00:00 21.9 2 Noroeste 12 Noroeste 0 -- -- 81
2017-08-02 02:00:00 22.4 3 Noroeste 13 Noroeste 0 -- -- 79
2017-08-02 01:00:00 22.6 6 Oeste 12 Noroeste 0 -- -- 77
2017-08-02 00:00:00 23.1 4 Norte 20 Noroeste 0 -- -- 76
2017-08-01 23:00:00 23.1 3 Noroeste 9 Noroeste 0 -- -- 81
2017-08-01 22:00:00 24.6 2 Norte 14 Sur 0 -- -- 86
2017-08-01 21:00:00 26.6 6 Sur 10 Sudoeste 0 -- -- 80
2017-08-01 20:00:00 26.9 5 Norte 23 Sudeste 0 -- -- 78
2017-08-01 19:00:00 27.2 4 Norte 9 Noroeste 0 -- -- 77
2017-08-01 18:00:00 27.1 3 Oeste 17 Sudeste 0 -- -- 77
2017-08-01 17:00:00 27.2 13 Sur 28 Sudeste 0 -- -- 78
2017-08-01 16:00:00 31.3 9 Sudeste 17 Este 0 -- -- 54
2017-08-01 15:00:00 31.9 8 Este 15 Sudeste 0.2 -- -- 51
2017-08-01 14:00:00 28.8 5 Sudeste 19 Sudeste 1.2 -- -- 62
2017-08-01 13:00:00 27.9 8 Noroeste 14 Noroeste 0 -- -- 66
2017-08-01 12:00:00 27.9 5 Sur 17 Sudeste 0 -- -- 65
2017-08-01 11:00:00 28.3 6 Este 15 Sudeste 0 -- -- 64
2017-08-01 10:00:00 26.5 3 Norte 9 Este 0 -- -- 69
2017-08-01 09:00:00 24.7 4 Este 8 Sudeste 0 -- -- 74
2017-08-01 08:00:00 21.8 0 Calma 9 Noroeste 0 -- -- 80
2017-08-01 07:00:00 20.3 4 Noroeste 6 Noroeste 0 -- -- 84
2017-08-01 06:00:00 21 8 Noroeste 10 Noroeste 0 -- -- 82
2017-08-01 05:00:00 21.4 6 Noroeste 12 Oeste 0 -- -- 84
2017-08-01 04:00:00 21.4 4 Oeste 7 Noroeste 0 -- -- 88
2017-08-01 03:00:00 22.1 2 Sudeste 9 Noroeste 0 -- -- 88
2017-08-01 02:00:00 23.4 4 Noroeste 8 Noroeste 0 -- -- 87
2017-08-01 01:00:00 23.6 4 Noroeste 6 Noroeste 0 -- -- 86
2017-08-01 00:00:00 23.5 0 Calma 5 Noroeste 0 -- -- 81
2017-07-31 23:00:00 25 0 Calma 8 Este 0 -- -- 77
2017-07-31 22:00:00 26 4 Este 13 Este 0 -- -- 74
2017-07-31 21:00:00 27.5 4 Este 12 Sudeste 0 -- -- 65
2017-07-31 20:00:00 29 6 Este 16 Nordeste 0 -- -- 60
2017-07-31 19:00:00 30 9 Sudeste 21 Este 0 -- -- 58
2017-07-31 18:00:00 32.2 12 Este 24 Sudeste 0 -- -- 47
2017-07-31 17:00:00 33.8 12 Este 26 Sudeste 0 -- -- 40
2017-07-31 16:00:00 34.4 15 Este 25 Este 0 -- -- 37
2017-07-31 15:00:00 34.3 14 Este 32 Sudeste 0 -- -- 37
2017-07-31 14:00:00 34.9 15 Este 26 Este 0 -- -- 31
2017-07-31 13:00:00 33.5 10 Este 25 Este 0 -- -- 41
2017-07-31 12:00:00 32.4 11 Este 21 Sudeste 0 -- -- 42
2017-07-31 11:00:00 30.5 7 Este 20 Este 0 -- -- 45
2017-07-31 10:00:00 27.7 5 Nordeste 15 Nordeste 0 -- -- 53
2017-07-31 09:00:00 24.8 4 Nordeste 9 Nordeste 0 -- -- 63
2017-07-31 08:00:00 21.1 3 Noroeste 10 Oeste 0 -- -- 65
2017-07-31 07:00:00 19.6 4 Noroeste 8 Noroeste 0 -- -- 67
2017-07-31 06:00:00 19.9 6 Noroeste 9 Noroeste 0 -- -- 64
2017-07-31 05:00:00 19.9 3 Noroeste 10 Oeste 0 -- -- 64
2017-07-31 04:00:00 20 6 Noroeste 9 Oeste 0 -- -- 65
2017-07-31 03:00:00 21.1 6 Noroeste 10 Oeste 0 -- -- 63
2017-07-31 02:00:00 22.6 6 Noroeste 11 Noroeste 0 -- -- 63
2017-07-31 01:00:00 23 8 Noroeste 12 Oeste 0 -- -- 63
2017-07-31 00:00:00 22.8 5 Noroeste 13 Noroeste 0 -- -- 70
2017-07-30 23:00:00 23.5 8 Noroeste 10 Noroeste 0 -- -- 71
2017-07-30 22:00:00 24.4 2 Noroeste 6 Sudoeste 0 -- -- 72
2017-07-30 21:00:00 26.6 5 Sur 15 Sudeste 0 -- -- 66
2017-07-30 20:00:00 28.9 11 Sur 18 Sudeste 0 -- -- 58
2017-07-30 19:00:00 30.9 14 Sudeste 23 Sudeste 0 -- -- 50
2017-07-30 18:00:00 32.3 16 Sudeste 24 Sudeste 0 -- -- 40
2017-07-30 17:00:00 33.1 14 Sudeste 28 Sudeste 0 -- -- 39
2017-07-30 16:00:00 33.4 16 Sudeste 27 Sudeste 0 -- -- 38
2017-07-30 15:00:00 33.2 16 Sudeste 26 Sudeste 0 -- -- 37
2017-07-30 14:00:00 32.9 17 Sudeste 27 Sudeste 0 -- -- 37
2017-07-30 13:00:00 32.5 14 Sudeste 23 Este 0 -- -- 41
2017-07-30 12:00:00 31.6 12 Este 22 Sudeste 0 -- -- 41
2017-07-30 11:00:00 30.2 8 Sudeste 15 Este 0 -- -- 42
2017-07-30 10:00:00 27.9 3 Este 8 Este 0 -- -- 49
2017-07-30 09:00:00 24.9 2 Este 6 Noroeste 0 -- -- 63
2017-07-30 08:00:00 21.4 5 Noroeste 13 Noroeste 0 -- -- 60
2017-07-30 07:00:00 19.1 9 Noroeste 12 Noroeste 0 -- -- 66
2017-07-30 06:00:00 19.7 9 Noroeste 15 Noroeste 0 -- -- 63
2017-07-30 05:00:00 20.1 10 Noroeste 14 Noroeste 0 -- -- 63
2017-07-30 04:00:00 20.2 11 Noroeste 15 Noroeste 0 -- -- 64
2017-07-30 03:00:00 20.5 9 Noroeste 13 Noroeste 0 -- -- 66
2017-07-30 02:00:00 21.1 8 Noroeste 13 Noroeste 0 -- -- 68
2017-07-30 01:00:00 21.8 11 Noroeste 15 Noroeste 0 -- -- 73
2017-07-30 00:00:00 22.5 11 Noroeste 15 Noroeste 0 -- -- 77
2017-07-29 23:00:00 23.4 8 Noroeste 10 Noroeste 0 -- -- 79
2017-07-29 22:00:00 25.3 4 Sur 11 Sudeste 0 -- -- 76
2017-07-29 21:00:00 26.7 10 Sudeste 19 Sudeste 0 -- -- 68
2017-07-29 20:00:00 28.7 14 Sudeste 26 Este 0 -- -- 63
2017-07-29 19:00:00 29.9 17 Sudeste 27 Sudeste 0 -- -- 58
2017-07-29 18:00:00 31 19 Sudeste 30 Sudeste 0 -- -- 50
2017-07-29 17:00:00 32.1 19 Sudeste 27 Sudeste 0 -- -- 45
2017-07-29 16:00:00 31.7 16 Sudeste 25 Este 0 -- -- 46
2017-07-29 15:00:00 31.3 17 Sudeste 28 Sudeste 0 -- -- 47
2017-07-29 14:00:00 31.6 19 Sudeste 29 Sudeste 0 -- -- 42
2017-07-29 13:00:00 31.3 15 Sudeste 23 Sudeste 0 -- -- 43
2017-07-29 12:00:00 30.2 8 Sudeste 19 Sur 0 -- -- 44
2017-07-29 11:00:00 28.6 5 Sur 12 Este 0 -- -- 50
2017-07-29 10:00:00 26.8 10 Sudeste 17 Sudeste 0 -- -- 59
2017-07-29 09:00:00 24.2 3 Este 6 Noroeste 0 -- -- 73
2017-07-29 08:00:00 21 3 Noroeste 14 Noroeste 0 -- -- 84
2017-07-29 07:00:00 19.6 10 Noroeste 15 Noroeste 0 -- -- 87
2017-07-29 06:00:00 19.4 5 Noroeste 11 Noroeste 0 -- -- 87
2017-07-29 05:00:00 19.2 5 Noroeste 9 Noroeste 0 -- -- 88
2017-07-29 04:00:00 19.8 7 Noroeste 14 Noroeste 0 -- -- 85
2017-07-29 03:00:00 20 8 Noroeste 15 Noroeste 0 -- -- 85
2017-07-29 02:00:00 20.2 9 Noroeste 13 Noroeste 0 -- -- 85
2017-07-29 01:00:00 20.8 4 Oeste 13 Noroeste 0 -- -- 83
2017-07-29 00:00:00 21.6 8 Noroeste 10 Noroeste 0 -- -- 82
2017-07-28 23:00:00 22 4 Noroeste 5 Noroeste 0 -- -- 79
2017-07-28 22:00:00 23.9 2 Sudeste 10 Sudeste 0 -- -- 74
2017-07-28 21:00:00 25.2 6 Sudeste 21 Sudeste 0 -- -- 69
2017-07-28 20:00:00 27 13 Sudeste 21 Sudeste 0 -- -- 62
2017-07-28 19:00:00 28.7 15 Sudeste 22 Sudeste 0 -- -- 52
2017-07-28 18:00:00 29.6 13 Sudeste 28 Sudeste 0 -- -- 49
2017-07-28 17:00:00 30.1 13 Sudeste 28 Este 0 -- -- 49
2017-07-28 16:00:00 30.2 14 Sudeste 28 Sudeste 0 -- -- 51
2017-07-28 15:00:00 30.4 17 Sudeste 28 Sudeste 0 -- -- 51
2017-07-28 14:00:00 29.8 18 Sudeste 31 Sudeste 0 -- -- 57
2017-07-28 13:00:00 29.6 17 Sudeste 31 Sudeste 0 -- -- 54
2017-07-28 12:00:00 29.5 17 Sudeste 24 Sudeste 0 -- -- 54
2017-07-28 11:00:00 27.8 11 Sudeste 21 Este 0 -- -- 63
2017-07-28 10:00:00 27.2 8 Sudeste 20 Sudeste 0 -- -- 68
2017-07-28 09:00:00 24.8 3 Noroeste 12 Noroeste 0 -- -- 74
2017-07-28 08:00:00 21.8 7 Noroeste 13 Noroeste 0 -- -- 79
2017-07-28 07:00:00 20 10 Noroeste 13 Noroeste 0 -- -- 88
2017-07-28 06:00:00 20.1 7 Noroeste 10 Oeste 0 -- -- 88
2017-07-28 05:00:00 20.6 7 Noroeste 13 Noroeste 0 -- -- 88
2017-07-28 04:00:00 21.1 10 Noroeste 12 Noroeste 0 -- -- 89
2017-07-28 03:00:00 21.5 8 Noroeste 9 Noroeste 0 -- -- 88
2017-07-28 02:00:00 22 3 Noroeste 12 Noroeste 0 -- -- 86
2017-07-28 01:00:00 22.4 6 Noroeste 10 Noroeste 0 -- -- 85
2017-07-28 00:00:00 22.8 5 Noroeste 8 Noroeste 0 -- -- 84
2017-07-27 23:00:00 24.2 3 Noroeste 6 Noroeste 0 -- -- 82
2017-07-27 22:00:00 26 0 Calma 7 Norte 0 -- -- 76
2017-07-27 21:00:00 27.5 5 Este 17 Este 0 -- -- 68
2017-07-27 20:00:00 29.3 10 Sudeste 23 Sudeste 0 -- -- 57
2017-07-27 19:00:00 29.9 16 Sudeste 27 Sudeste 0 -- -- 59
2017-07-27 18:00:00 30.4 18 Este 31 Este 0 -- -- 56
2017-07-27 17:00:00 30.7 18 Sudeste 31 Sudeste 0 -- -- 57
2017-07-27 16:00:00 30.5 18 Sudeste 31 Este 0 -- -- 56
2017-07-27 15:00:00 30.1 18 Sudeste 31 Sudeste 0 -- -- 56
2017-07-27 14:00:00 29.7 19 Sudeste 36 Sudeste 0 -- -- 57
2017-07-27 13:00:00 30.4 13 Sudeste 26 Sudeste 0 -- -- 41
2017-07-27 12:00:00 28.6 13 Sudeste 23 Sudeste 0 -- -- 48
2017-07-27 11:00:00 27.2 12 Sudeste 19 Sudeste 0 -- -- 54
2017-07-27 10:00:00 24.9 6 Este 13 Este 0 -- -- 60
2017-07-27 09:00:00 22.2 3 Sudeste 6 Sur 0 -- -- 65
2017-07-27 08:00:00 18.8 2 Norte 13 Noroeste 0 -- -- 75
2017-07-27 07:00:00 16.6 8 Noroeste 13 Noroeste 0 -- -- 82
2017-07-27 06:00:00 17 8 Noroeste 13 Noroeste 0 -- -- 81
2017-07-27 05:00:00 17.4 10 Noroeste 13 Noroeste 0 -- -- 81
2017-07-27 04:00:00 18.1 8 Noroeste 14 Noroeste 0 -- -- 81
2017-07-27 03:00:00 18.4 9 Noroeste 15 Noroeste 0 -- -- 82
2017-07-27 02:00:00 18.8 9 Noroeste 13 Noroeste 0 -- -- 82
2017-07-27 01:00:00 19.1 9 Noroeste 11 Noroeste 0 -- -- 82
2017-07-27 00:00:00 19.8 5 Oeste 13 Oeste 0 -- -- 80
2017-07-26 23:00:00 20.1 4 Noroeste 7 Noroeste 0 -- -- 79
2017-07-26 22:00:00 21.8 0 Calma 12 Este 0 -- -- 73
2017-07-26 21:00:00 23.6 9 Sudeste 15 Sudeste 0 -- -- 67
2017-07-26 20:00:00 25 11 Sudeste 19 Sudeste 0 -- -- 61
2017-07-26 19:00:00 24.7 12 Sudeste 28 Sudeste 0 -- -- 66
2017-07-26 18:00:00 25 13 Sudeste 26 Sudeste 0 -- -- 64
2017-07-26 17:00:00 25.2 18 Sudeste 29 Sudeste 0 -- -- 62
2017-07-26 16:00:00 26.1 18 Sudeste 31 Sudeste 0 -- -- 57
2017-07-26 15:00:00 26.9 21 Sudeste 33 Sudeste 0 -- -- 54
2017-07-26 14:00:00 27.7 17 Sudeste 32 Sur 0 -- -- 48
2017-07-26 13:00:00 26.6 16 Sudeste 31 Sudeste 0 -- -- 49
2017-07-26 12:00:00 24.6 8 Sur 15 Sur 0 -- -- 54
2017-07-26 11:00:00 24.1 10 Sudeste 16 Este 0 -- -- 54
2017-07-26 10:00:00 22.6 2 Norte 5 Sudoeste 0 -- -- 57
2017-07-26 09:00:00 20.1 4 Oeste 6 Noroeste 0 -- -- 63
2017-07-26 08:00:00 18.5 4 Oeste 11 Noroeste 0 -- -- 72
2017-07-26 07:00:00 18.7 0 Calma 11 Sudeste 0 -- -- 68
2017-07-26 06:00:00 19.6 4 Este 12 Sudeste 0 -- -- 66
2017-07-26 05:00:00 20 5 Noroeste 9 Noroeste 0 -- -- 68
2017-07-26 04:00:00 19.6 5 Noroeste 9 Noroeste 0 -- -- 88
2017-07-26 03:00:00 20.3 5 Noroeste 7 Noroeste 0 -- -- 86
2017-07-26 02:00:00 20.8 3 Noroeste 5 Noroeste 0 -- -- 83
2017-07-26 01:00:00 21.2 3 Norte 8 Norte 0 -- -- 80
2017-07-26 00:00:00 21 5 Noroeste 8 Noroeste 0 -- -- 83
2017-07-25 23:00:00 20.9 3 Noroeste 14 Norte 0 -- -- 85
2017-07-25 22:00:00 21 5 Norte 13 Nordeste 0 -- -- 86
2017-07-25 21:00:00 21.8 7 Noroeste 16 Norte 0 -- -- 83
2017-07-25 20:00:00 21.8 6 Norte 16 Noroeste 0 -- -- 82
2017-07-25 19:00:00 23.4 9 Este 33 Sudeste 0 -- -- 74
2017-07-25 18:00:00 25.3 25 Sudeste 39 Sudeste 0 -- -- 63
2017-07-25 17:00:00 26.3 19 Sudeste 41 Este 0 -- -- 58
2017-07-25 16:00:00 26.3 26 Sudeste 41 Este 0 -- -- 57
2017-07-25 15:00:00 27.6 24 Sudeste 38 Este 0 -- -- 54
2017-07-25 14:00:00 28.4 25 Sudeste 41 Este 0 -- -- 50
2017-07-25 13:00:00 27.8 15 Sudeste 29 Este 0 -- -- 42
2017-07-25 12:00:00 25.4 12 Sudeste 21 Sudeste 0 -- -- 49
2017-07-25 11:00:00 24.1 8 Este 14 Este 0 -- -- 56
2017-07-25 10:00:00 22.9 5 Sur 9 Sudeste 0 -- -- 59
2017-07-25 09:00:00 21.6 3 Oeste 7 Este 0 -- -- 66
2017-07-25 08:00:00 19.8 4 Este 9 Oeste 0 -- -- 80
2017-07-25 07:00:00 18.8 6 Oeste 10 Oeste 0 -- -- 78
2017-07-25 06:00:00 19.8 4 Noroeste 15 Oeste 0 -- -- 75
2017-07-25 05:00:00 20.2 8 Oeste 13 Noroeste 0 -- -- 83
2017-07-25 04:00:00 20.1 10 Noroeste 13 Noroeste 0 -- -- 91
2017-07-25 03:00:00 21.4 7 Oeste 11 Oeste 0.8 -- -- 91
2017-07-25 02:00:00 22 2 Noroeste 6 Noroeste 0 -- -- 86
2017-07-25 01:00:00 21.5 3 Noroeste 7 Noroeste 0 -- -- 87
2017-07-25 00:00:00 21.6 3 Noroeste 8 Este 0 -- -- 85
2017-07-24 23:00:00 22.8 3 Este 10 Nordeste 0 -- -- 80
2017-07-24 22:00:00 23.4 3 Nordeste 19 Este 0 -- -- 79
2017-07-24 21:00:00 24.5 10 Este 20 Este 0 -- -- 72
2017-07-24 20:00:00 27.3 9 Este 22 Este 0 -- -- 60
2017-07-24 19:00:00 28.6 13 Este 26 Sudeste 0 -- -- 50
2017-07-24 18:00:00 29 13 Sudeste 26 Sudeste 0 -- -- 49
2017-07-24 17:00:00 29.1 9 Este 26 Este 0 -- -- 49
2017-07-24 16:00:00 29.4 13 Sudeste 26 Este 0 -- -- 49
2017-07-24 15:00:00 28.5 14 Este 34 Sudeste 0 -- -- 51
2017-07-24 14:00:00 30.3 10 Sudeste 23 Sudeste 0 -- -- 41
2017-07-24 13:00:00 28.6 7 Sudeste 22 Sudeste 0 -- -- 45
2017-07-24 12:00:00 27.1 14 Sudeste 21 Este 0 -- -- 55
2017-07-24 11:00:00 25.6 6 Este 12 Este 0 -- -- 61
2017-07-24 10:00:00 23 4 Sur 10 Este 0.2 -- -- 73
2017-07-24 09:00:00 20.2 3 Este 6 Sudeste 0 -- -- 91
2017-07-24 08:00:00 18.3 2 Este 4 Oeste 0 -- -- 98
2017-07-24 07:00:00 16.7 3 Noroeste 8 Noroeste 0 -- -- 97
2017-07-24 06:00:00 17.1 6 Noroeste 10 Noroeste 0 -- -- 96
2017-07-24 05:00:00 17.4 0 Calma 7 Noroeste 0 -- -- 95
2017-07-24 04:00:00 17.8 3 Noroeste 12 Oeste 0 -- -- 95
2017-07-24 03:00:00 18.3 9 Noroeste 12 Noroeste 0 -- -- 94
2017-07-24 02:00:00 18.5 6 Noroeste 11 Noroeste 0 -- -- 95
2017-07-24 01:00:00 19 2 Noroeste 12 Noroeste 0 -- -- 94
2017-07-24 00:00:00 19.4 6 Noroeste 10 Noroeste 0 -- -- 94
2017-07-23 23:00:00 19.7 4 Noroeste 10 Noroeste 0 -- -- 93
2017-07-23 22:00:00 19.6 9 Noroeste 13 Noroeste 0 -- -- 93
2017-07-23 21:00:00 20.4 4 Noroeste 28 Oeste 1.4 -- -- 90
2017-07-23 20:00:00 20.2 8 Norte 36 Sudeste 3.2 -- -- 87
2017-07-23 19:00:00 24.6 17 Sudeste 27 Sudeste 0 -- -- 67
2017-07-23 18:00:00 26.2 16 Sudeste 28 Sudeste 0 -- -- 61
2017-07-23 17:00:00 26.9 20 Sudeste 28 Sudeste 0.2 -- -- 58
2017-07-23 16:00:00 28.5 15 Sudeste 31 Sudeste 0 -- -- 52
2017-07-23 15:00:00 29 20 Sudeste 31 Sudeste 0 -- -- 50
2017-07-23 14:00:00 29.2 16 Sudeste 25 Sudeste 0 -- -- 51
2017-07-23 13:00:00 27.9 13 Sudeste 22 Sudeste 0 -- -- 56
2017-07-23 12:00:00 27.3 13 Sudeste 22 Sudeste 0 -- -- 56
2017-07-23 11:00:00 26.9 8 Sudeste 16 Este 0 -- -- 63
2017-07-23 10:00:00 27 8 Sudeste 16 Sur 0 -- -- 64
2017-07-23 09:00:00 25.8 4 Norte 7 Norte 0 -- -- 70
2017-07-23 08:00:00 23.6 6 Noroeste 9 Noroeste 0 -- -- 79
2017-07-23 07:00:00 22.5 5 Noroeste 9 Noroeste 0 -- -- 83
2017-07-23 06:00:00 22.7 3 Oeste 9 Noroeste 0 -- -- 82
2017-07-23 05:00:00 22.5 4 Noroeste 11 Noroeste 0 -- -- 83
2017-07-23 04:00:00 22.1 5 Noroeste 10 Oeste 0 -- -- 83
2017-07-23 03:00:00 21.2 6 Oeste 13 Noroeste 0 -- -- 83
2017-07-23 02:00:00 21.7 10 Noroeste 12 Noroeste 0 -- -- 81
2017-07-23 01:00:00 22.1 6 Noroeste 10 Noroeste 0 -- -- 80
2017-07-23 00:00:00 22.7 5 Noroeste 11 Noroeste 0 -- -- 78
2017-07-22 23:00:00 23.4 7 Noroeste 9 Noroeste 0 -- -- 76
2017-07-22 22:00:00 25.3 3 Sudeste 10 Sudeste 0 -- -- 67
2017-07-22 21:00:00 27.3 9 Sudeste 20 Sudeste 0 -- -- 62
2017-07-22 20:00:00 28.4 13 Sudeste 24 Sudeste 0 -- -- 61
2017-07-22 19:00:00 28.2 14 Este 28 Sudeste 0 -- -- 64
2017-07-22 18:00:00 28.9 15 Sudeste 26 Sudeste 0 -- -- 60
2017-07-22 17:00:00 30.7 17 Sudeste 26 Sur 0 -- -- 53
2017-07-22 16:00:00 29.8 14 Sudeste 23 Sudeste 0 -- -- 57
2017-07-22 15:00:00 28.3 13 Este 23 Sudeste 0 -- -- 59
2017-07-22 14:00:00 27.9 12 Sudeste 28 Sur 0 -- -- 59
2017-07-22 13:00:00 28 20 Sudeste 32 Sudeste 0 -- -- 58
2017-07-22 12:00:00 28.8 12 Sudeste 32 Sur 0 -- -- 55
2017-07-22 11:00:00 27.3 8 Este 17 Este 0 -- -- 59
2017-07-22 10:00:00 25.9 4 Norte 12 Este 0 -- -- 64
2017-07-22 09:00:00 24 5 Norte 9 Nordeste 0 -- -- 74
2017-07-22 08:00:00 20.7 7 Noroeste 13 Noroeste 0 -- -- 85
2017-07-22 07:00:00 18.9 9 Noroeste 17 Noroeste 0 -- -- 91
2017-07-22 06:00:00 18.7 8 Noroeste 13 Noroeste 0 -- -- 91
2017-07-22 05:00:00 19 5 Noroeste 10 Noroeste 0 -- -- 89
2017-07-22 04:00:00 19.3 6 Noroeste 15 Noroeste 0 -- -- 89
2017-07-22 03:00:00 19.7 7 Noroeste 13 Noroeste 0 -- -- 90
2017-07-22 02:00:00 20 6 Noroeste 13 Noroeste 0 -- -- 89
2017-07-22 01:00:00 20.5 9 Noroeste 14 Noroeste 0 -- -- 89
2017-07-22 00:00:00 21.1 8 Noroeste 10 Noroeste 0 -- -- 87
2017-07-21 23:00:00 21.8 5 Oeste 7 Noroeste 0 -- -- 83
2017-07-21 22:00:00 23.6 0 Calma 18 Sudeste 0 -- -- 77
2017-07-21 21:00:00 25.3 10 Sudeste 18 Sudeste 0 -- -- 72
2017-07-21 20:00:00 27.3 9 Sudeste 18 Sur 0 -- -- 62
2017-07-21 19:00:00 27.3 12 Sudeste 20 Sudeste 0 -- -- 63
2017-07-21 18:00:00 26.5 10 Sudeste 21 Sudeste 0 -- -- 65
2017-07-21 17:00:00 27.6 3 Sudeste 16 Sudeste 0 -- -- 54
2017-07-21 16:00:00 25.6 4 Noroeste 13 Noroeste 0 -- -- 58
2017-07-21 15:00:00 22.9 12 Noroeste 24 Noroeste 0 -- -- 77
2017-07-21 14:00:00 21.9 9 Oeste 20 Oeste 0.4 -- -- 80
2017-07-21 13:00:00 25.5 5 Noroeste 26 Norte 0 -- -- 57
2017-07-21 12:00:00 27.1 17 Noroeste 33 Noroeste 0 -- -- 48
2017-07-21 11:00:00 26.5 6 Noroeste 15 Oeste 0 -- -- 51
2017-07-21 10:00:00 24.9 3 Oeste 10 Sudeste 0 -- -- 62
2017-07-21 09:00:00 23.1 3 Este 8 Este 0 -- -- 69
2017-07-21 08:00:00 20.1 2 Oeste 9 Noroeste 0 -- -- 72
2017-07-21 07:00:00 18.7 6 Noroeste 13 Noroeste 0 -- -- 74
2017-07-21 06:00:00 19 7 Noroeste 13 Oeste 0 -- -- 73
2017-07-21 05:00:00 19.4 9 Noroeste 12 Oeste 0 -- -- 72
2017-07-21 04:00:00 19.9 6 Oeste 11 Oeste 0 -- -- 75
2017-07-21 03:00:00 20.3 0 Calma 8 Oeste 0 -- -- 76
2017-07-21 02:00:00 21.2 5 Noroeste 8 Noroeste 0 -- -- 73
2017-07-21 01:00:00 21.6 3 Oeste 10 Oeste 0 -- -- 74
2017-07-21 00:00:00 22.1 4 Oeste 10 Oeste 0 -- -- 72
2017-07-20 23:00:00 22.8 4 Sudoeste 10 Sur 0 -- -- 71
2017-07-20 22:00:00 23.5 8 Sudoeste 14 Sudoeste 0 -- -- 69
2017-07-20 21:00:00 24.7 9 Sudeste 17 Sudeste 0 -- -- 64
2017-07-20 20:00:00 26.9 11 Sudeste 22 Sudeste 0 -- -- 54
2017-07-20 19:00:00 28 16 Sudeste 26 Este 0 -- -- 51
2017-07-20 18:00:00 29.4 16 Sudeste 35 Sudeste 0 -- -- 47
2017-07-20 17:00:00 30 17 Sudeste 36 Sudeste 0 -- -- 46
2017-07-20 16:00:00 29.7 14 Este 29 Sudeste 0 -- -- 53
2017-07-20 15:00:00 28.6 13 Este 27 Sudeste 0 -- -- 58
2017-07-20 14:00:00 29.4 4 Sudeste 23 Sudeste 0 -- -- 50
2017-07-20 13:00:00 29.3 14 Este 31 Este 0 -- -- 51
2017-07-20 12:00:00 29.1 11 Nordeste 26 Este 0 -- -- 52
2017-07-20 11:00:00 28.8 12 Este 24 Este 0 -- -- 52
2017-07-20 10:00:00 27.1 6 Sur 13 Sur 0 -- -- 54
2017-07-20 09:00:00 24.5 6 Sudeste 10 Sur 0 -- -- 67
2017-07-20 08:00:00 21.7 0 Calma 6 Noroeste 0 -- -- 82
2017-07-20 07:00:00 20.4 4 Noroeste 17 Oeste 0 -- -- 85
2017-07-20 06:00:00 20.8 6 Noroeste 15 Nordeste 0 -- -- 84
2017-07-20 05:00:00 22.1 6 Norte 16 Nordeste 0 -- -- 82
2017-07-20 04:00:00 21.5 6 Noroeste 10 Noroeste 0 -- -- 85
2017-07-20 03:00:00 22 9 Noroeste 13 Noroeste 0 -- -- 84
2017-07-20 02:00:00 22.6 4 Noroeste 6 Noroeste 0 -- -- 84
2017-07-20 01:00:00 22.7 5 Noroeste 8 Noroeste 0 -- -- 84
2017-07-20 00:00:00 23.1 4 Noroeste 8 Nordeste 0 -- -- 84
2017-07-19 23:00:00 24 3 Este 8 Nordeste 0 -- -- 79
2017-07-19 22:00:00 25 5 Este 10 Este 0 -- -- 74
2017-07-19 21:00:00 26.5 4 Nordeste 17 Este 0 -- -- 65
2017-07-19 20:00:00 28.2 8 Este 22 Sudeste 0 -- -- 46
2017-07-19 19:00:00 29 13 Sudeste 23 Sudeste 0 -- -- 50
2017-07-19 18:00:00 30.6 13 Sudeste 23 Sudeste 0 -- -- 39
2017-07-19 17:00:00 30.2 16 Sudeste 29 Sudeste 0 -- -- 48
2017-07-19 16:00:00 30.3 18 Sudeste 30 Sudeste 0 -- -- 45
2017-07-19 15:00:00 30.6 18 Sudeste 28 Sudeste 0 -- -- 52
2017-07-19 14:00:00 29.9 21 Sudeste 33 Sudeste 0 -- -- 54
2017-07-19 13:00:00 33.1 17 Sudeste 29 Sudeste 0 -- -- 37
2017-07-19 12:00:00 32.2 13 Sudeste 23 Sudeste 0 -- -- 27
2017-07-19 11:00:00 30.9 8 Sudeste 14 Sudeste 0 -- -- 32
2017-07-19 10:00:00 27.3 7 Sudeste 12 Sudeste 0 -- -- 43
2017-07-19 09:00:00 23.8 4 Sur 10 Este 0 -- -- 60
2017-07-19 08:00:00 21.5 7 Noroeste 11 Noroeste 0 -- -- 59
2017-07-19 07:00:00 18.7 4 Noroeste 15 Noroeste 0 -- -- 69
2017-07-19 06:00:00 19.9 8 Noroeste 15 Noroeste 0 -- -- 72
2017-07-19 05:00:00 20.3 9 Noroeste 14 Noroeste 0 -- -- 79
2017-07-19 04:00:00 21.3 8 Noroeste 10 Noroeste 0 -- -- 80
2017-07-19 03:00:00 21.7 6 Sudoeste 10 Sudoeste 0 -- -- 86
2017-07-19 02:00:00 22.3 6 Sudoeste 10 Sur 0 -- -- 86
2017-07-19 01:00:00 22.7 2 Oeste 7 Sudoeste 0 -- -- 87
2017-07-19 00:00:00 23.1 3 Sur 5 Sudeste 0 -- -- 85